createdAt,value
2024-01-05T00:00:09.903Z,1.90
2024-01-05T00:02:36.641Z,1.70
2024-01-05T00:05:03.297Z,2.20
2024-01-05T00:07:30.413Z,2.93
2024-01-05T00:09:57.256Z,2.30
2024-01-05T00:12:23.972Z,2.30
2024-01-05T00:14:50.623Z,2.27
2024-01-05T00:17:17.577Z,1.90
2024-01-05T00:19:44.323Z,1.73
2024-01-05T00:22:11.016Z,1.90
2024-01-05T00:24:38.483Z,1.80
2024-01-05T00:27:05.382Z,1.77
2024-01-05T00:29:32.037Z,1.30
2024-01-05T00:31:58.756Z,1.30
2024-01-05T00:34:25.417Z,1.57
2024-01-05T00:36:52.052Z,1.40
2024-01-05T00:39:18.835Z,1.50
2024-01-05T00:41:47.467Z,1.57
2024-01-05T00:44:14.252Z,1.57
2024-01-05T00:46:41.270Z,1.40
2024-01-05T00:49:08.054Z,1.17
2024-01-05T00:51:34.801Z,1.10
2024-01-05T00:54:01.541Z,1.10
2024-01-05T00:56:28.174Z,1.00
2024-01-05T00:58:55.008Z,1.00
2024-01-05T01:01:21.754Z,1.30
2024-01-05T01:03:48.565Z,1.20
2024-01-05T01:06:15.378Z,1.00
2024-01-05T01:08:42.051Z,0.90
2024-01-05T01:11:15.624Z,1.17
2024-01-05T01:13:43.525Z,1.00
2024-01-05T01:16:10.989Z,1.03
2024-01-05T01:18:37.811Z,1.37
2024-01-05T01:21:04.930Z,1.17
2024-01-05T01:23:31.749Z,1.20
2024-01-05T01:25:58.366Z,1.20
2024-01-05T01:28:25.006Z,1.30
2024-01-05T01:30:51.725Z,1.50
2024-01-05T01:33:20.655Z,1.40
2024-01-05T01:35:47.378Z,1.70
2024-01-05T01:38:14.005Z,1.60
2024-01-05T01:40:47.016Z,1.70
2024-01-05T01:43:26.565Z,1.93
2024-01-05T01:45:54.477Z,2.10
2024-01-05T01:48:22.261Z,2.27
2024-01-05T01:50:50.864Z,2.10
2024-01-05T01:53:20.283Z,2.03
2024-01-05T01:55:49.922Z,1.77
2024-01-05T01:58:20.907Z,1.70
2024-01-05T02:00:47.945Z,1.43
2024-01-05T02:03:15.581Z,1.30
2024-01-05T02:05:43.224Z,1.40
2024-01-05T02:08:09.902Z,1.20
2024-01-05T02:10:36.511Z,1.23
2024-01-05T02:13:03.340Z,1.27
2024-01-05T02:15:30.070Z,1.27
2024-01-05T02:17:56.912Z,1.43
2024-01-05T02:20:23.817Z,1.33
2024-01-05T02:23:03.839Z,1.13
2024-01-05T02:25:30.479Z,1.40
2024-01-05T02:27:57.104Z,1.10
2024-01-05T02:30:23.816Z,1.20
2024-01-05T02:32:50.697Z,1.37
2024-01-05T02:35:17.343Z,1.50
2024-01-05T02:37:44.644Z,1.20
2024-01-05T02:40:12.899Z,1.30
2024-01-05T02:42:42.467Z,1.17
2024-01-05T02:45:09.481Z,1.33
2024-01-05T02:47:36.229Z,1.40
2024-01-05T02:50:03.641Z,1.23
2024-01-05T02:52:30.326Z,1.50
2024-01-05T02:54:57.029Z,1.30
2024-01-05T02:57:23.744Z,1.50
2024-01-05T02:59:50.465Z,2.20
2024-01-05T03:02:17.242Z,2.10
2024-01-05T03:04:44.950Z,2.60
2024-01-05T03:07:11.754Z,1.73
2024-01-05T03:09:38.558Z,1.30
2024-01-05T03:12:06.707Z,1.10
2024-01-05T03:14:33.451Z,1.40
2024-01-05T03:17:00.136Z,1.30
2024-01-05T03:19:26.941Z,1.40
2024-01-05T03:21:53.625Z,1.70
2024-01-05T03:24:20.319Z,1.80
2024-01-05T03:26:47.098Z,2.30
2024-01-05T03:29:13.822Z,2.30
2024-01-05T03:31:40.597Z,1.80
2024-01-05T03:34:07.407Z,1.73
2024-01-05T03:36:34.233Z,1.63
2024-01-05T03:39:01.142Z,1.77
2024-01-05T03:41:28.118Z,1.97
2024-01-05T03:43:55.755Z,1.80
2024-01-05T03:46:22.475Z,1.70
2024-01-05T03:48:49.362Z,1.50
2024-01-05T03:51:16.311Z,1.57
2024-01-05T03:53:43.146Z,1.40
2024-01-05T03:56:09.889Z,1.70
2024-01-05T03:58:36.723Z,1.40
2024-01-05T04:01:04.253Z,1.40
2024-01-05T04:03:31.529Z,1.53
2024-01-05T04:05:58.379Z,1.17
2024-01-05T04:08:25.209Z,1.30
2024-01-05T04:10:51.825Z,1.50
2024-01-05T04:13:18.580Z,1.50
2024-01-05T04:15:46.550Z,1.80
2024-01-05T04:18:14.320Z,3.03
2024-01-05T04:20:41.233Z,2.50
2024-01-05T04:23:07.978Z,1.90
2024-01-05T04:25:34.641Z,1.80
2024-01-05T04:28:01.273Z,1.77
2024-01-05T04:30:28.197Z,1.77
2024-01-05T04:32:55.080Z,1.90
2024-01-05T04:35:21.880Z,1.60
2024-01-05T04:37:48.596Z,1.70
2024-01-05T04:40:15.552Z,1.70
2024-01-05T04:42:42.292Z,1.70
2024-01-05T04:45:11.922Z,1.77
2024-01-05T04:47:38.732Z,1.90
2024-01-05T04:50:06.221Z,1.67
2024-01-05T04:52:35.760Z,1.90
2024-01-05T04:55:02.664Z,2.00
2024-01-05T04:57:29.389Z,2.20
2024-01-05T04:59:56.138Z,1.40
2024-01-05T05:02:22.831Z,1.93
2024-01-05T05:04:49.608Z,1.80
2024-01-05T05:07:16.340Z,1.60
2024-01-05T05:09:43.075Z,1.87
2024-01-05T05:12:09.729Z,1.20
2024-01-05T05:14:36.437Z,1.30
2024-01-05T05:17:03.155Z,1.30
2024-01-05T05:19:30.042Z,2.03
2024-01-05T05:21:56.890Z,1.43
2024-01-05T05:24:23.699Z,1.50
2024-01-05T05:26:50.326Z,1.53
2024-01-05T05:29:17.030Z,1.60
2024-01-05T05:31:43.952Z,1.90
2024-01-05T05:34:10.780Z,2.00
2024-01-05T05:36:37.547Z,2.20
2024-01-05T05:39:04.358Z,2.20
2024-01-05T05:41:31.063Z,2.13
2024-01-05T05:43:57.780Z,2.33
2024-01-05T05:46:24.422Z,2.47
2024-01-05T05:48:51.332Z,2.43
2024-01-05T05:51:18.289Z,2.20
2024-01-05T05:53:45.034Z,1.97
2024-01-05T05:56:11.731Z,2.20
2024-01-05T05:58:38.388Z,2.10
2024-01-05T06:01:06.434Z,2.13
2024-01-05T06:03:33.318Z,1.90
2024-01-05T06:06:00.209Z,1.90
2024-01-05T06:08:27.040Z,1.53
2024-01-05T06:10:53.681Z,2.10
2024-01-05T06:13:20.406Z,2.00
2024-01-05T06:15:47.060Z,1.60
2024-01-05T06:18:14.079Z,1.60
2024-01-05T06:20:40.831Z,1.90
2024-01-05T06:23:07.497Z,2.20
2024-01-05T06:25:34.174Z,2.43
2024-01-05T06:28:01.603Z,2.30
2024-01-05T06:30:28.394Z,1.70
2024-01-05T06:32:55.302Z,1.93
2024-01-05T06:35:22.093Z,2.43
2024-01-05T06:37:48.824Z,2.17
2024-01-05T06:40:15.610Z,2.73
2024-01-05T06:42:42.664Z,2.47
2024-01-05T06:45:09.767Z,3.10
2024-01-05T06:47:36.561Z,4.03
2024-01-05T06:50:05.664Z,4.50
2024-01-05T06:52:32.657Z,4.63
2024-01-05T06:55:02.309Z,5.73
2024-01-05T06:57:30.755Z,6.57
2024-01-05T06:59:57.804Z,7.33
2024-01-05T07:02:24.819Z,8.43
2024-01-05T07:04:51.498Z,8.90
2024-01-05T07:07:18.154Z,7.13
2024-01-05T07:09:44.819Z,5.30
2024-01-05T07:12:11.523Z,3.90
2024-01-05T07:14:40.180Z,3.93
2024-01-05T07:17:07.010Z,3.40
2024-01-05T07:19:34.040Z,2.67
2024-01-05T07:22:00.737Z,4.07
2024-01-05T07:24:27.482Z,2.70
2024-01-05T07:26:54.242Z,2.67
2024-01-05T07:29:20.943Z,6.00
2024-01-05T07:31:47.607Z,2.70
2024-01-05T07:34:14.480Z,2.83
2024-01-05T07:36:44.746Z,2.87
2024-01-05T07:39:12.557Z,3.77
2024-01-05T07:41:39.867Z,4.83
2024-01-05T07:44:06.889Z,6.33
2024-01-05T07:46:33.943Z,8.50
2024-01-05T07:49:00.793Z,9.97
2024-01-05T07:51:27.865Z,9.07
2024-01-05T07:53:54.674Z,8.23
2024-01-05T07:56:21.413Z,6.20
2024-01-05T07:58:48.109Z,6.43
2024-01-05T08:01:23.782Z,6.50
2024-01-05T08:03:50.645Z,7.83
2024-01-05T08:06:23.878Z,10.30
2024-01-05T08:08:51.595Z,7.37
2024-01-05T08:11:18.955Z,6.70
2024-01-05T08:13:49.913Z,4.10
2024-01-05T08:16:16.678Z,5.07
2024-01-05T08:18:43.431Z,3.80
2024-01-05T08:21:10.469Z,4.60
2024-01-05T08:23:37.963Z,2.60
2024-01-05T08:26:05.275Z,2.80
2024-01-05T08:28:32.116Z,2.83
2024-01-05T08:30:59.820Z,3.20
2024-01-05T08:33:26.943Z,11.27
2024-01-05T08:35:53.895Z,6.20
2024-01-05T08:38:20.695Z,6.17
2024-01-05T08:40:48.683Z,6.37
2024-01-05T08:43:15.528Z,5.30
2024-01-05T08:45:42.305Z,4.67
2024-01-05T08:48:09.118Z,3.80
2024-01-05T08:50:36.614Z,4.30
2024-01-05T08:53:03.401Z,2.90
2024-01-05T08:55:30.403Z,2.87
2024-01-05T08:57:57.799Z,3.87
2024-01-05T09:00:24.875Z,4.47
2024-01-05T09:02:51.842Z,5.80
2024-01-05T09:05:18.699Z,3.50
2024-01-05T09:07:45.413Z,11.70
2024-01-05T09:10:12.129Z,6.07
2024-01-05T09:12:39.466Z,7.80
2024-01-05T09:15:08.192Z,8.10
2024-01-05T09:17:35.181Z,8.57
2024-01-05T09:20:02.255Z,8.20
2024-01-05T09:22:29.049Z,4.33
2024-01-05T09:24:55.806Z,4.60
2024-01-05T09:27:23.507Z,3.33
2024-01-05T09:29:50.234Z,6.80
2024-01-05T09:32:17.133Z,3.47
2024-01-05T09:34:44.463Z,6.60
2024-01-05T09:37:11.709Z,5.57
2024-01-05T09:39:38.446Z,4.00
2024-01-05T09:42:05.554Z,2.30
2024-01-05T09:44:33.045Z,2.60
2024-01-05T09:46:59.848Z,2.50
2024-01-05T09:49:27.308Z,4.60
2024-01-05T09:51:54.621Z,4.10
2024-01-05T09:54:21.422Z,4.33
2024-01-05T09:56:48.667Z,5.33
2024-01-05T09:59:18.799Z,8.30
2024-01-05T10:01:50.417Z,5.73
2024-01-05T10:04:17.093Z,5.90
2024-01-05T10:06:43.999Z,5.50
2024-01-05T10:09:10.793Z,7.33
2024-01-05T10:11:43.233Z,8.23
2024-01-05T10:14:14.864Z,5.47
2024-01-05T10:16:41.621Z,6.70
2024-01-05T10:19:18.978Z,8.20
2024-01-05T10:21:48.244Z,8.27
2024-01-05T10:24:25.874Z,4.80
2024-01-05T10:27:06.963Z,5.67
2024-01-05T10:29:38.687Z,3.73
2024-01-05T10:32:16.593Z,6.13
2024-01-05T10:34:47.882Z,5.30
2024-01-05T10:37:16.034Z,4.27
2024-01-05T10:39:49.562Z,14.00
2024-01-05T10:42:26.696Z,16.70
2024-01-05T10:44:58.035Z,10.13
2024-01-05T10:47:27.292Z,3.93
2024-01-05T10:49:57.517Z,4.27
2024-01-05T10:52:27.545Z,6.10
2024-01-05T10:55:08.831Z,9.20
2024-01-05T10:57:38.942Z,8.40
2024-01-05T11:00:07.026Z,6.77
2024-01-05T11:02:42.218Z,7.63
2024-01-05T11:05:16.141Z,5.60
2024-01-05T11:07:43.847Z,5.00
2024-01-05T11:10:33.360Z,7.43
2024-01-05T11:13:13.247Z,4.33
2024-01-05T11:16:18.492Z,4.00
2024-01-05T11:19:15.119Z,7.87
2024-01-05T11:21:58.796Z,2.80
2024-01-05T11:24:26.038Z,2.97
2024-01-05T11:26:53.452Z,2.97
2024-01-05T11:29:49.166Z,3.27
2024-01-05T11:32:37.428Z,3.30
2024-01-05T11:35:06.109Z,5.50
2024-01-05T11:37:33.178Z,4.50
2024-01-05T11:40:01.715Z,3.70
2024-01-05T11:42:30.160Z,3.40
2024-01-05T11:44:58.805Z,5.60
2024-01-05T11:47:48.570Z,23.33
2024-01-05T11:50:33.055Z,10.00
2024-01-05T11:53:15.834Z,15.10
2024-01-05T11:55:50.741Z,3.80
2024-01-05T11:58:22.308Z,3.60
2024-01-05T12:00:51.134Z,2.97
2024-01-05T12:03:18.940Z,2.80
2024-01-05T12:05:51.204Z,3.20
2024-01-05T12:08:18.614Z,3.50
2024-01-05T12:10:45.556Z,3.90
2024-01-05T12:13:12.312Z,4.10
2024-01-05T12:15:47.541Z,4.13
2024-01-05T12:18:28.014Z,4.20
2024-01-05T12:21:02.664Z,4.37
2024-01-05T12:23:33.065Z,4.47
2024-01-05T12:26:04.915Z,4.40
2024-01-05T12:28:35.010Z,4.87
2024-01-05T12:31:03.610Z,4.30
2024-01-05T12:33:32.357Z,4.10
2024-01-05T12:35:59.336Z,7.80
2024-01-05T12:38:26.710Z,5.00
2024-01-05T12:41:05.345Z,6.10
2024-01-05T12:43:32.140Z,4.33
2024-01-05T12:46:01.806Z,6.80
2024-01-05T12:48:29.024Z,5.47
2024-01-05T12:51:11.789Z,6.70
2024-01-05T12:53:38.623Z,3.93
2024-01-05T12:56:09.251Z,4.07
2024-01-05T12:58:43.986Z,4.33
2024-01-05T13:01:18.753Z,5.50
2024-01-05T13:04:01.130Z,6.30
2024-01-05T13:06:31.570Z,4.60
2024-01-05T13:09:01.679Z,12.60
2024-01-05T13:11:28.512Z,6.20
2024-01-05T13:13:55.290Z,5.47
2024-01-05T13:16:22.137Z,5.63
2024-01-05T13:18:49.523Z,4.17
2024-01-05T13:21:42.979Z,5.70
2024-01-05T13:25:10.441Z,10.93
2024-01-05T13:27:40.069Z,4.97
2024-01-05T13:30:10.834Z,4.10
2024-01-05T13:32:39.626Z,4.60
2024-01-05T13:35:06.865Z,5.33
2024-01-05T13:37:33.879Z,3.80
2024-01-05T13:40:01.665Z,4.13
2024-01-05T13:42:30.098Z,4.50
2024-01-05T13:44:57.482Z,4.87
2024-01-05T13:47:25.800Z,3.60
2024-01-05T13:49:52.765Z,3.97
2024-01-05T13:52:19.462Z,3.70
2024-01-05T13:54:48.595Z,4.60
2024-01-05T13:57:15.721Z,4.60
2024-01-05T13:59:42.452Z,3.70
2024-01-05T14:02:09.197Z,5.10
2024-01-05T14:04:35.896Z,4.70
2024-01-05T14:07:02.724Z,4.20
2024-01-05T14:09:29.616Z,7.17
2024-01-05T14:11:56.667Z,6.40
2024-01-05T14:14:23.389Z,6.20
2024-01-05T14:16:50.136Z,9.00
2024-01-05T14:19:16.888Z,10.70
2024-01-05T14:21:43.652Z,10.10
2024-01-05T14:24:10.896Z,10.13
2024-01-05T14:26:38.634Z,9.23
2024-01-05T14:29:06.351Z,8.90
2024-01-05T14:31:37.726Z,9.47
2024-01-05T14:34:04.998Z,11.17
2024-01-05T14:36:31.835Z,8.40
2024-01-05T14:38:59.462Z,8.10
2024-01-05T14:41:29.351Z,7.50
2024-01-05T14:43:56.573Z,6.13
2024-01-05T14:46:23.315Z,6.37
2024-01-05T14:48:52.822Z,8.03
2024-01-05T14:51:19.536Z,7.90
2024-01-05T14:53:46.278Z,12.40
2024-01-05T14:56:17.749Z,13.60
2024-01-05T14:58:47.160Z,13.50
2024-01-05T15:01:15.745Z,24.17
2024-01-05T15:03:42.712Z,30.40
2024-01-05T15:06:11.055Z,26.80
2024-01-05T15:08:51.759Z,17.90
2024-01-05T15:11:21.547Z,12.57
2024-01-05T15:13:48.632Z,11.57
2024-01-05T15:16:15.374Z,7.23
2024-01-05T15:18:42.267Z,8.63
2024-01-05T15:21:09.215Z,19.03
2024-01-05T15:23:35.879Z,12.93
2024-01-05T15:26:02.606Z,10.97
2024-01-05T15:28:29.503Z,13.23
2024-01-05T15:30:56.302Z,16.53
2024-01-05T15:33:24.252Z,16.97
2024-01-05T15:35:51.033Z,18.33
2024-01-05T15:38:17.709Z,14.63
2024-01-05T15:40:44.338Z,14.87
2024-01-05T15:43:11.799Z,14.50
2024-01-05T15:45:38.587Z,10.70
2024-01-05T15:48:06.335Z,12.77
2024-01-05T15:50:33.302Z,10.60
2024-01-05T15:53:05.487Z,14.03
2024-01-05T15:55:38.033Z,15.00
2024-01-05T15:58:08.500Z,16.77
2024-01-05T16:00:35.267Z,17.33
2024-01-05T16:03:02.149Z,16.23
2024-01-05T16:05:28.907Z,17.17
2024-01-05T16:10:37.375Z,36.07
2024-01-05T16:13:04.948Z,35.40
2024-01-05T16:15:31.639Z,28.63
2024-01-05T16:18:03.378Z,16.10
2024-01-05T16:20:30.077Z,17.93
2024-01-05T16:22:56.732Z,17.50
2024-01-05T16:25:23.397Z,26.13
2024-01-05T16:27:50.137Z,14.10
2024-01-05T16:30:17.804Z,23.53
2024-01-05T16:32:46.606Z,32.00
2024-01-05T16:35:13.329Z,38.03
2024-01-05T16:37:40.174Z,38.40
2024-01-05T16:40:07.667Z,37.00
2024-01-05T16:42:34.442Z,61.50
2024-01-05T16:45:01.127Z,117.57
2024-01-05T16:47:28.038Z,103.73
2024-01-05T16:49:54.867Z,30.07
2024-01-05T16:52:21.583Z,32.20
2024-01-05T16:54:49.019Z,30.43
2024-01-05T16:57:15.678Z,31.80
2024-01-05T16:59:42.374Z,29.43
2024-01-05T17:02:09.145Z,29.90
2024-01-05T17:04:36.405Z,32.00
2024-01-05T17:07:03.182Z,26.60
2024-01-05T17:09:29.931Z,24.43
2024-01-05T17:11:58.116Z,23.17
2024-01-05T17:14:27.351Z,23.93
2024-01-05T17:16:54.089Z,23.07
2024-01-05T17:19:20.783Z,25.67
2024-01-05T17:21:49.047Z,26.80
2024-01-05T17:24:16.107Z,25.23
2024-01-05T17:26:42.905Z,26.73
2024-01-05T17:29:09.534Z,28.83
2024-01-05T17:31:36.523Z,26.23
2024-01-05T17:34:03.942Z,25.10
2024-01-05T17:36:30.934Z,25.87
2024-01-05T17:38:58.114Z,23.50
2024-01-05T17:41:25.100Z,45.33
2024-01-05T17:43:51.767Z,35.30
2024-01-05T17:46:18.457Z,21.43
2024-01-05T17:48:45.329Z,73.20
2024-01-05T17:51:12.192Z,106.03
2024-01-05T17:53:41.471Z,69.47
2024-01-05T17:56:08.857Z,90.03
2024-01-05T17:58:35.522Z,63.30
2024-01-05T18:01:06.990Z,52.73
2024-01-05T18:03:36.299Z,33.23
2024-01-05T18:06:03.085Z,22.00
2024-01-05T18:08:29.821Z,18.37
2024-01-05T18:10:56.499Z,45.40
2024-01-05T18:13:24.425Z,36.47
2024-01-05T18:15:51.222Z,20.53
2024-01-05T18:18:18.252Z,42.67
2024-01-05T18:20:45.655Z,29.03
2024-01-05T18:23:15.641Z,21.53
2024-01-05T18:25:43.567Z,26.83
2024-01-05T18:28:10.568Z,40.73
2024-01-05T18:30:37.629Z,40.53
2024-01-05T18:33:04.949Z,29.33
2024-01-05T18:35:31.960Z,34.53
2024-01-05T18:37:58.745Z,27.80
2024-01-05T18:40:25.421Z,29.50
2024-01-05T18:42:52.490Z,34.50
2024-01-05T18:45:19.294Z,19.27
2024-01-05T18:47:46.176Z,46.03
2024-01-05T18:50:15.560Z,53.50
2024-01-05T18:52:42.237Z,58.40
2024-01-05T18:55:09.224Z,59.00
2024-01-05T18:57:35.928Z,60.07
2024-01-05T19:00:02.791Z,49.80
2024-01-05T19:02:31.651Z,50.87
2024-01-05T19:04:58.381Z,53.87
2024-01-05T19:07:25.412Z,52.87
2024-01-05T19:09:52.609Z,59.50
2024-01-05T19:12:19.446Z,59.20
2024-01-05T19:14:46.214Z,59.60
2024-01-05T19:17:13.007Z,54.13
2024-01-05T19:19:42.718Z,51.77
2024-01-05T19:22:09.555Z,53.20
2024-01-05T19:24:37.256Z,56.53
2024-01-05T19:27:04.208Z,56.87
2024-01-05T19:29:31.155Z,54.93
2024-01-05T19:31:58.090Z,51.30
2024-01-05T19:34:25.047Z,55.23
2024-01-05T19:36:52.722Z,53.27
2024-01-05T19:39:19.728Z,50.60
2024-01-05T19:41:47.599Z,52.27
2024-01-05T19:44:18.542Z,54.07
2024-01-05T19:46:45.796Z,51.93
2024-01-05T19:49:13.578Z,51.97
2024-01-05T19:51:48.357Z,55.27
2024-01-05T19:54:16.649Z,57.87
2024-01-05T19:56:44.209Z,53.20
2024-01-05T19:59:12.283Z,50.87
2024-01-05T20:01:41.246Z,57.20
2024-01-05T20:04:08.045Z,63.47
2024-01-05T20:06:37.656Z,60.17
2024-01-05T20:09:12.078Z,54.77
2024-01-05T20:11:39.287Z,54.13
2024-01-05T20:14:06.703Z,50.80
2024-01-05T20:16:33.497Z,51.27
2024-01-05T20:19:02.503Z,51.67
2024-01-05T20:21:33.557Z,59.57
2024-01-05T20:24:02.406Z,57.00
2024-01-05T20:26:30.370Z,52.93
2024-01-05T20:28:57.693Z,64.93
2024-01-05T20:31:24.802Z,57.60
2024-01-05T20:33:52.666Z,59.33
2024-01-05T20:36:19.693Z,59.80
2024-01-05T20:38:46.590Z,51.63
2024-01-05T20:41:13.700Z,61.27
2024-01-05T20:43:43.681Z,58.23
2024-01-05T20:46:10.988Z,52.53
2024-01-05T20:48:38.559Z,56.20
2024-01-05T20:51:08.347Z,53.73
2024-01-05T20:53:35.636Z,53.73
2024-01-05T20:56:02.529Z,53.53
2024-01-05T20:58:29.238Z,54.83
2024-01-05T21:00:59.004Z,53.60
2024-01-05T21:03:26.116Z,53.57
2024-01-05T21:05:53.259Z,52.80
2024-01-05T21:08:20.226Z,49.50
2024-01-05T21:10:46.901Z,51.90
2024-01-05T21:13:13.665Z,51.53
2024-01-05T21:15:40.397Z,51.80
2024-01-05T21:18:08.159Z,56.30
2024-01-05T21:20:35.058Z,50.33
2024-01-05T21:23:01.891Z,53.37
2024-01-05T21:25:30.630Z,49.80
2024-01-05T21:27:57.757Z,48.30
2024-01-05T21:30:24.809Z,31.60
2024-01-05T21:32:52.172Z,37.63
2024-01-05T21:35:18.949Z,51.27
2024-01-05T21:37:45.994Z,50.13
2024-01-05T21:40:12.735Z,52.40
2024-01-05T21:42:39.667Z,46.63
2024-01-05T21:45:08.250Z,48.30
2024-01-05T21:47:36.806Z,49.10
2024-01-05T21:50:06.708Z,47.53
2024-01-05T21:52:33.658Z,46.47
2024-01-05T21:55:00.444Z,50.43
2024-01-05T21:57:31.388Z,48.70
2024-01-05T21:59:58.140Z,44.20
2024-01-05T22:02:25.788Z,43.13
2024-01-05T22:04:52.541Z,41.47
2024-01-05T22:07:19.315Z,39.40
2024-01-05T22:09:46.062Z,42.00
2024-01-05T22:12:13.348Z,42.83
2024-01-05T22:14:42.772Z,47.20
2024-01-05T22:17:09.744Z,48.87
2024-01-05T22:19:37.106Z,48.00
2024-01-05T22:22:04.506Z,48.37
2024-01-05T22:24:31.600Z,50.07
2024-01-05T22:27:07.838Z,49.30
2024-01-05T22:29:37.073Z,52.30
2024-01-05T22:32:04.061Z,165.37
2024-01-05T22:34:48.771Z,58.90
2024-01-05T22:37:16.927Z,53.23
2024-01-05T22:39:43.704Z,51.53
2024-01-05T22:42:12.774Z,51.00
2024-01-05T22:44:45.097Z,51.53
2024-01-05T22:47:11.996Z,53.90
2024-01-05T22:49:40.949Z,55.47
2024-01-05T22:52:08.301Z,57.10
2024-01-05T22:54:35.870Z,54.73
2024-01-05T22:57:04.099Z,56.47
2024-01-05T22:59:32.955Z,54.00
2024-01-05T23:02:00.378Z,51.60
2024-01-05T23:04:27.909Z,51.50
2024-01-05T23:06:56.564Z,52.50
2024-01-05T23:09:26.288Z,50.27
2024-01-05T23:12:13.455Z,50.87
2024-01-05T23:14:43.789Z,49.47
2024-01-05T23:17:10.453Z,49.80
2024-01-05T23:19:38.659Z,48.63
2024-01-05T23:22:05.810Z,44.50
2024-01-05T23:24:32.595Z,43.67
2024-01-05T23:26:59.320Z,43.53
2024-01-05T23:29:26.037Z,47.47
2024-01-05T23:31:52.854Z,45.33
2024-01-05T23:34:19.868Z,38.00
2024-01-05T23:36:46.680Z,36.73
2024-01-05T23:39:13.453Z,36.47
2024-01-05T23:41:40.231Z,30.83
2024-01-05T23:44:06.869Z,27.90
2024-01-05T23:46:33.518Z,29.20
2024-01-05T23:49:00.294Z,29.50
2024-01-05T23:51:27.087Z,30.97
2024-01-05T23:53:54.152Z,35.37
2024-01-05T23:56:20.881Z,36.80
2024-01-05T23:58:47.547Z,33.77
